sensor_id;sensor_type;location;lat;lon;timestamp;P1;durP1;ratioP1;P2;durP2;ratioP2
30062;SDS011;16889;67.864;24.990;2023-07-16T00:04:36;5.38;;;1.60;;
30062;SDS011;16889;67.864;24.990;2023-07-16T00:09:22;2.63;;;1.52;;
30062;SDS011;16889;67.864;24.990;2023-07-16T00:14:09;4.50;;;1.40;;
30062;SDS011;16889;67.864;24.990;2023-07-16T00:18:57;2.65;;;1.67;;
30062;SDS011;16889;67.864;24.990;2023-07-16T00:23:43;3.10;;;1.42;;
30062;SDS011;16889;67.864;24.990;2023-07-16T00:28:29;3.90;;;1.42;;
30062;SDS011;16889;67.864;24.990;2023-07-16T00:33:15;6.15;;;1.38;;
30062;SDS011;16889;67.864;24.990;2023-07-16T00:38:01;2.53;;;1.60;;
30062;SDS011;16889;67.864;24.990;2023-07-16T00:42:47;1.88;;;1.40;;
30062;SDS011;16889;67.864;24.990;2023-07-16T00:47:33;2.45;;;1.50;;
30062;SDS011;16889;67.864;24.990;2023-07-16T00:52:19;2.30;;;1.42;;
30062;SDS011;16889;67.864;24.990;2023-07-16T01:01:53;2.75;;;1.30;;
30062;SDS011;16889;67.864;24.990;2023-07-16T01:06:40;3.92;;;1.30;;
30062;SDS011;16889;67.864;24.990;2023-07-16T01:11:29;3.08;;;1.10;;
30062;SDS011;16889;67.864;24.990;2023-07-16T01:16:18;1.77;;;1.30;;
30062;SDS011;16889;67.864;24.990;2023-07-16T01:21:08;1.75;;;1.30;;
30062;SDS011;16889;67.864;24.990;2023-07-16T01:30:47;2.30;;;1.65;;
30062;SDS011;16889;67.864;24.990;2023-07-16T01:35:35;3.45;;;1.90;;
30062;SDS011;16889;67.864;24.990;2023-07-16T01:40:21;4.32;;;1.70;;
30062;SDS011;16889;67.864;24.990;2023-07-16T01:45:07;4.47;;;1.63;;
30062;SDS011;16889;67.864;24.990;2023-07-16T01:49:54;2.55;;;1.88;;
30062;SDS011;16889;67.864;24.990;2023-07-16T01:54:40;2.28;;;1.50;;
30062;SDS011;16889;67.864;24.990;2023-07-16T01:59:26;1.90;;;1.38;;
30062;SDS011;16889;67.864;24.990;2023-07-16T02:04:13;3.20;;;1.55;;
30062;SDS011;16889;67.864;24.990;2023-07-16T02:08:58;6.22;;;1.77;;
30062;SDS011;16889;67.864;24.990;2023-07-16T02:13:44;5.20;;;1.48;;
30062;SDS011;16889;67.864;24.990;2023-07-16T02:18:30;5.03;;;1.90;;
30062;SDS011;16889;67.864;24.990;2023-07-16T02:23:16;5.05;;;1.70;;
30062;SDS011;16889;67.864;24.990;2023-07-16T02:28:02;2.50;;;1.65;;
30062;SDS011;16889;67.864;24.990;2023-07-16T02:32:48;5.45;;;1.75;;
30062;SDS011;16889;67.864;24.990;2023-07-16T02:37:34;2.50;;;1.58;;
30062;SDS011;16889;67.864;24.990;2023-07-16T02:42:20;1.67;;;1.45;;
30062;SDS011;16889;67.864;24.990;2023-07-16T02:47:07;3.13;;;1.58;;
30062;SDS011;16889;67.864;24.990;2023-07-16T02:51:53;3.28;;;1.67;;
30062;SDS011;16889;67.864;24.990;2023-07-16T02:56:39;3.20;;;1.67;;
30062;SDS011;16889;67.864;24.990;2023-07-16T03:01:25;2.03;;;1.50;;
30062;SDS011;16889;67.864;24.990;2023-07-16T03:06:11;1.70;;;1.35;;
30062;SDS011;16889;67.864;24.990;2023-07-16T03:10:57;2.60;;;1.60;;
30062;SDS011;16889;67.864;24.990;2023-07-16T03:15:43;1.65;;;1.48;;
30062;SDS011;16889;67.864;24.990;2023-07-16T03:20:29;3.58;;;1.70;;
30062;SDS011;16889;67.864;24.990;2023-07-16T03:25:16;1.58;;;1.40;;
30062;SDS011;16889;67.864;24.990;2023-07-16T03:30:02;2.65;;;1.50;;
30062;SDS011;16889;67.864;24.990;2023-07-16T03:34:49;2.10;;;1.30;;
30062;SDS011;16889;67.864;24.990;2023-07-16T03:39:35;2.20;;;1.27;;
30062;SDS011;16889;67.864;24.990;2023-07-16T03:44:21;2.90;;;1.35;;
30062;SDS011;16889;67.864;24.990;2023-07-16T03:49:07;2.38;;;1.40;;
30062;SDS011;16889;67.864;24.990;2023-07-16T03:53:53;1.42;;;1.30;;
30062;SDS011;16889;67.864;24.990;2023-07-16T03:58:39;1.88;;;1.20;;
30062;SDS011;16889;67.864;24.990;2023-07-16T04:03:25;2.95;;;1.05;;
30062;SDS011;16889;67.864;24.990;2023-07-16T04:08:11;1.08;;;0.90;;
30062;SDS011;16889;67.864;24.990;2023-07-16T04:12:58;1.70;;;1.00;;
30062;SDS011;16889;67.864;24.990;2023-07-16T04:17:44;1.35;;;0.88;;
30062;SDS011;16889;67.864;24.990;2023-07-16T04:22:30;2.25;;;0.90;;
30062;SDS011;16889;67.864;24.990;2023-07-16T04:27:16;2.08;;;1.10;;
30062;SDS011;16889;67.864;24.990;2023-07-16T04:32:02;0.85;;;0.73;;
30062;SDS011;16889;67.864;24.990;2023-07-16T04:36:48;1.80;;;0.75;;
30062;SDS011;16889;67.864;24.990;2023-07-16T04:41:35;1.27;;;0.80;;
30062;SDS011;16889;67.864;24.990;2023-07-16T04:46:20;3.15;;;0.90;;
30062;SDS011;16889;67.864;24.990;2023-07-16T04:51:07;2.58;;;0.75;;
30062;SDS011;16889;67.864;24.990;2023-07-16T04:55:55;1.27;;;0.60;;
30062;SDS011;16889;67.864;24.990;2023-07-16T05:00:42;1.45;;;0.73;;
30062;SDS011;16889;67.864;24.990;2023-07-16T05:05:28;1.10;;;0.70;;
30062;SDS011;16889;67.864;24.990;2023-07-16T05:15:00;2.58;;;0.80;;
30062;SDS011;16889;67.864;24.990;2023-07-16T05:19:46;3.35;;;0.65;;
30062;SDS011;16889;67.864;24.990;2023-07-16T05:24:32;2.85;;;0.60;;
30062;SDS011;16889;67.864;24.990;2023-07-16T05:29:18;1.02;;;0.60;;
30062;SDS011;16889;67.864;24.990;2023-07-16T05:34:04;2.10;;;0.55;;
30062;SDS011;16889;67.864;24.990;2023-07-16T05:38:52;1.23;;;0.52;;
30062;SDS011;16889;67.864;24.990;2023-07-16T05:43:38;0.98;;;0.57;;
30062;SDS011;16889;67.864;24.990;2023-07-16T05:48:24;1.55;;;0.63;;
30062;SDS011;16889;67.864;24.990;2023-07-16T05:53:10;1.10;;;0.60;;
30062;SDS011;16889;67.864;24.990;2023-07-16T05:57:58;1.45;;;0.50;;
30062;SDS011;16889;67.864;24.990;2023-07-16T06:02:44;3.50;;;0.80;;
30062;SDS011;16889;67.864;24.990;2023-07-16T06:07:30;1.15;;;0.68;;
30062;SDS011;16889;67.864;24.990;2023-07-16T06:12:17;2.20;;;0.70;;
30062;SDS011;16889;67.864;24.990;2023-07-16T06:17:03;2.47;;;0.88;;
30062;SDS011;16889;67.864;24.990;2023-07-16T06:21:49;1.83;;;0.80;;
30062;SDS011;16889;67.864;24.990;2023-07-16T06:26:35;1.48;;;0.90;;
30062;SDS011;16889;67.864;24.990;2023-07-16T06:31:21;1.33;;;0.68;;
30062;SDS011;16889;67.864;24.990;2023-07-16T06:36:07;0.77;;;0.73;;
30062;SDS011;16889;67.864;24.990;2023-07-16T06:40:53;1.00;;;0.80;;
30062;SDS011;16889;67.864;24.990;2023-07-16T06:45:40;2.95;;;0.80;;
30062;SDS011;16889;67.864;24.990;2023-07-16T06:50:26;0.60;;;0.60;;
30062;SDS011;16889;67.864;24.990;2023-07-16T06:55:12;1.20;;;0.73;;
30062;SDS011;16889;67.864;24.990;2023-07-16T06:59:58;4.28;;;0.60;;
30062;SDS011;16889;67.864;24.990;2023-07-16T07:04:44;1.10;;;0.80;;
30062;SDS011;16889;67.864;24.990;2023-07-16T07:09:30;0.60;;;0.55;;
30062;SDS011;16889;67.864;24.990;2023-07-16T07:14:16;1.95;;;0.65;;
30062;SDS011;16889;67.864;24.990;2023-07-16T07:19:02;1.35;;;0.60;;
30062;SDS011;16889;67.864;24.990;2023-07-16T07:23:48;1.35;;;0.60;;
30062;SDS011;16889;67.864;24.990;2023-07-16T07:28:34;1.52;;;0.60;;
30062;SDS011;16889;67.864;24.990;2023-07-16T07:33:20;3.65;;;0.57;;
30062;SDS011;16889;67.864;24.990;2023-07-16T07:38:06;0.73;;;0.40;;
30062;SDS011;16889;67.864;24.990;2023-07-16T07:42:52;2.50;;;0.65;;
30062;SDS011;16889;67.864;24.990;2023-07-16T07:47:38;1.10;;;0.50;;
30062;SDS011;16889;67.864;24.990;2023-07-16T07:52:24;1.13;;;0.50;;
30062;SDS011;16889;67.864;24.990;2023-07-16T07:57:11;0.75;;;0.50;;
30062;SDS011;16889;67.864;24.990;2023-07-16T08:01:57;1.17;;;0.50;;
30062;SDS011;16889;67.864;24.990;2023-07-16T08:06:44;1.50;;;0.57;;
30062;SDS011;16889;67.864;24.990;2023-07-16T08:11:30;1.35;;;0.60;;
30062;SDS011;16889;67.864;24.990;2023-07-16T08:16:16;0.52;;;0.40;;
30062;SDS011;16889;67.864;24.990;2023-07-16T08:21:01;2.85;;;0.55;;
30062;SDS011;16889;67.864;24.990;2023-07-16T08:25:47;0.43;;;0.43;;
30062;SDS011;16889;67.864;24.990;2023-07-16T08:30:35;0.30;;;0.30;;
30062;SDS011;16889;67.864;24.990;2023-07-16T08:35:21;0.70;;;0.40;;
30062;SDS011;16889;67.864;24.990;2023-07-16T08:40:07;0.40;;;0.40;;
30062;SDS011;16889;67.864;24.990;2023-07-16T08:44:55;0.98;;;0.40;;
30062;SDS011;16889;67.864;24.990;2023-07-16T08:49:41;1.80;;;0.40;;
30062;SDS011;16889;67.864;24.990;2023-07-16T08:54:27;0.43;;;0.40;;
30062;SDS011;16889;67.864;24.990;2023-07-16T08:59:17;4.95;;;0.73;;
30062;SDS011;16889;67.864;24.990;2023-07-16T09:04:03;0.70;;;0.50;;
30062;SDS011;16889;67.864;24.990;2023-07-16T09:08:49;1.02;;;0.57;;
30062;SDS011;16889;67.864;24.990;2023-07-16T09:13:35;1.15;;;0.50;;
30062;SDS011;16889;67.864;24.990;2023-07-16T09:18:22;0.65;;;0.52;;
30062;SDS011;16889;67.864;24.990;2023-07-16T09:23:11;2.15;;;1.00;;
30062;SDS011;16889;67.864;24.990;2023-07-16T09:27:58;1.08;;;0.50;;
30062;SDS011;16889;67.864;24.990;2023-07-16T09:32:47;1.63;;;0.60;;
30062;SDS011;16889;67.864;24.990;2023-07-16T09:37:33;0.95;;;0.68;;
30062;SDS011;16889;67.864;24.990;2023-07-16T09:47:07;0.80;;;0.65;;
30062;SDS011;16889;67.864;24.990;2023-07-16T09:51:53;1.33;;;0.68;;
30062;SDS011;16889;67.864;24.990;2023-07-16T09:56:47;3.28;;;0.60;;
30062;SDS011;16889;67.864;24.990;2023-07-16T10:01:38;0.45;;;0.35;;
30062;SDS011;16889;67.864;24.990;2023-07-16T10:06:25;1.40;;;0.50;;
30062;SDS011;16889;67.864;24.990;2023-07-16T10:11:17;2.35;;;0.55;;
30062;SDS011;16889;67.864;24.990;2023-07-16T10:16:04;0.82;;;0.40;;
30062;SDS011;16889;67.864;24.990;2023-07-16T10:20:51;0.93;;;0.50;;
30062;SDS011;16889;67.864;24.990;2023-07-16T10:25:37;1.85;;;0.55;;
30062;SDS011;16889;67.864;24.990;2023-07-16T10:30:23;0.83;;;0.50;;
30062;SDS011;16889;67.864;24.990;2023-07-16T10:35:09;0.63;;;0.60;;
30062;SDS011;16889;67.864;24.990;2023-07-16T10:39:56;0.45;;;0.38;;
30062;SDS011;16889;67.864;24.990;2023-07-16T10:44:44;0.70;;;0.50;;
30062;SDS011;16889;67.864;24.990;2023-07-16T10:49:30;1.10;;;0.70;;
30062;SDS011;16889;67.864;24.990;2023-07-16T10:54:16;0.85;;;0.50;;
30062;SDS011;16889;67.864;24.990;2023-07-16T10:59:02;0.82;;;0.50;;
30062;SDS011;16889;67.864;24.990;2023-07-16T11:03:48;1.30;;;0.60;;
30062;SDS011;16889;67.864;24.990;2023-07-16T11:08:33;0.57;;;0.50;;
30062;SDS011;16889;67.864;24.990;2023-07-16T11:13:19;0.88;;;0.70;;
30062;SDS011;16889;67.864;24.990;2023-07-16T11:18:09;1.02;;;0.60;;
30062;SDS011;16889;67.864;24.990;2023-07-16T11:22:57;0.80;;;0.60;;
30062;SDS011;16889;67.864;24.990;2023-07-16T11:27:47;1.05;;;0.68;;
30062;SDS011;16889;67.864;24.990;2023-07-16T11:32:33;0.95;;;0.60;;
30062;SDS011;16889;67.864;24.990;2023-07-16T11:37:34;1.50;;;0.60;;
30062;SDS011;16889;67.864;24.990;2023-07-16T11:42:24;0.75;;;0.60;;
30062;SDS011;16889;67.864;24.990;2023-07-16T11:47:13;0.98;;;0.70;;
30062;SDS011;16889;67.864;24.990;2023-07-16T11:51:59;0.65;;;0.50;;
30062;SDS011;16889;67.864;24.990;2023-07-16T11:56:45;0.50;;;0.50;;
30062;SDS011;16889;67.864;24.990;2023-07-16T12:01:32;2.95;;;0.60;;
30062;SDS011;16889;67.864;24.990;2023-07-16T12:06:18;1.00;;;0.68;;
30062;SDS011;16889;67.864;24.990;2023-07-16T12:11:04;0.75;;;0.60;;
30062;SDS011;16889;67.864;24.990;2023-07-16T12:15:50;0.85;;;0.60;;
30062;SDS011;16889;67.864;24.990;2023-07-16T12:20:36;0.98;;;0.50;;
30062;SDS011;16889;67.864;24.990;2023-07-16T12:25:22;0.70;;;0.60;;
30062;SDS011;16889;67.864;24.990;2023-07-16T12:30:08;1.20;;;0.60;;
30062;SDS011;16889;67.864;24.990;2023-07-16T12:34:54;4.43;;;0.80;;
30062;SDS011;16889;67.864;24.990;2023-07-16T12:39:40;0.95;;;0.50;;
30062;SDS011;16889;67.864;24.990;2023-07-16T12:44:26;1.15;;;0.60;;
30062;SDS011;16889;67.864;24.990;2023-07-16T12:49:12;1.20;;;0.70;;
30062;SDS011;16889;67.864;24.990;2023-07-16T12:53:58;1.50;;;0.70;;
30062;SDS011;16889;67.864;24.990;2023-07-16T12:58:47;1.45;;;0.70;;
30062;SDS011;16889;67.864;24.990;2023-07-16T13:08:19;1.63;;;0.80;;
30062;SDS011;16889;67.864;24.990;2023-07-16T13:13:05;1.30;;;0.70;;
30062;SDS011;16889;67.864;24.990;2023-07-16T13:17:53;1.67;;;0.70;;
30062;SDS011;16889;67.864;24.990;2023-07-16T13:22:39;4.03;;;0.60;;
30062;SDS011;16889;67.864;24.990;2023-07-16T13:27:25;0.57;;;0.50;;
30062;SDS011;16889;67.864;24.990;2023-07-16T13:32:11;1.60;;;0.73;;
30062;SDS011;16889;67.864;24.990;2023-07-16T13:36:57;1.40;;;0.70;;
30062;SDS011;16889;67.864;24.990;2023-07-16T13:41:43;1.50;;;0.82;;
30062;SDS011;16889;67.864;24.990;2023-07-16T13:46:29;1.45;;;0.73;;
30062;SDS011;16889;67.864;24.990;2023-07-16T13:51:15;3.28;;;0.82;;
30062;SDS011;16889;67.864;24.990;2023-07-16T13:56:01;1.20;;;0.70;;
30062;SDS011;16889;67.864;24.990;2023-07-16T14:00:47;2.70;;;0.80;;
30062;SDS011;16889;67.864;24.990;2023-07-16T14:05:33;2.45;;;0.80;;
30062;SDS011;16889;67.864;24.990;2023-07-16T14:10:23;1.55;;;0.80;;
30062;SDS011;16889;67.864;24.990;2023-07-16T14:15:10;1.50;;;0.70;;
30062;SDS011;16889;67.864;24.990;2023-07-16T14:19:56;4.00;;;0.80;;
30062;SDS011;16889;67.864;24.990;2023-07-16T14:24:42;1.88;;;1.00;;
30062;SDS011;16889;67.864;24.990;2023-07-16T14:29:28;1.65;;;0.90;;
30062;SDS011;16889;67.864;24.990;2023-07-16T14:34:14;1.92;;;0.70;;
30062;SDS011;16889;67.864;24.990;2023-07-16T14:39:00;1.98;;;0.77;;
30062;SDS011;16889;67.864;24.990;2023-07-16T14:43:47;2.00;;;0.90;;
30062;SDS011;16889;67.864;24.990;2023-07-16T14:48:34;4.43;;;0.80;;
30062;SDS011;16889;67.864;24.990;2023-07-16T14:53:21;0.60;;;0.60;;
30062;SDS011;16889;67.864;24.990;2023-07-16T14:58:07;1.25;;;0.75;;
30062;SDS011;16889;67.864;24.990;2023-07-16T15:02:53;0.98;;;0.80;;
30062;SDS011;16889;67.864;24.990;2023-07-16T15:07:39;2.78;;;0.70;;
30062;SDS011;16889;67.864;24.990;2023-07-16T15:12:25;1.10;;;0.80;;
30062;SDS011;16889;67.864;24.990;2023-07-16T15:17:11;4.03;;;0.70;;
30062;SDS011;16889;67.864;24.990;2023-07-16T15:21:57;1.55;;;0.70;;
30062;SDS011;16889;67.864;24.990;2023-07-16T15:26:43;0.70;;;0.63;;
30062;SDS011;16889;67.864;24.990;2023-07-16T15:31:29;0.95;;;0.60;;
30062;SDS011;16889;67.864;24.990;2023-07-16T15:36:15;1.75;;;0.65;;
30062;SDS011;16889;67.864;24.990;2023-07-16T15:41:01;0.82;;;0.68;;
30062;SDS011;16889;67.864;24.990;2023-07-16T15:45:47;1.55;;;0.80;;
30062;SDS011;16889;67.864;24.990;2023-07-16T15:50:33;2.40;;;0.55;;
30062;SDS011;16889;67.864;24.990;2023-07-16T15:55:19;1.48;;;0.70;;
30062;SDS011;16889;67.864;24.990;2023-07-16T16:00:07;2.20;;;0.57;;
30062;SDS011;16889;67.864;24.990;2023-07-16T16:04:59;1.00;;;0.52;;
30062;SDS011;16889;67.864;24.990;2023-07-16T16:09:45;1.42;;;0.82;;
30062;SDS011;16889;67.864;24.990;2023-07-16T16:14:31;1.27;;;0.70;;
30062;SDS011;16889;67.864;24.990;2023-07-16T16:19:22;0.60;;;0.60;;
30062;SDS011;16889;67.864;24.990;2023-07-16T16:24:09;1.50;;;0.70;;
30062;SDS011;16889;67.864;24.990;2023-07-16T16:28:55;2.90;;;0.80;;
30062;SDS011;16889;67.864;24.990;2023-07-16T16:33:41;1.25;;;0.85;;
30062;SDS011;16889;67.864;24.990;2023-07-16T16:38:27;2.28;;;0.80;;
30062;SDS011;16889;67.864;24.990;2023-07-16T16:43:13;1.00;;;0.73;;
30062;SDS011;16889;67.864;24.990;2023-07-16T16:48:02;1.88;;;0.82;;
30062;SDS011;16889;67.864;24.990;2023-07-16T16:52:48;1.23;;;0.80;;
30062;SDS011;16889;67.864;24.990;2023-07-16T16:57:36;4.32;;;0.93;;
30062;SDS011;16889;67.864;24.990;2023-07-16T17:02:22;3.38;;;0.90;;
30062;SDS011;16889;67.864;24.990;2023-07-16T17:07:08;1.30;;;1.00;;
30062;SDS011;16889;67.864;24.990;2023-07-16T17:11:54;2.47;;;1.02;;
30062;SDS011;16889;67.864;24.990;2023-07-16T17:16:40;3.75;;;1.00;;
30062;SDS011;16889;67.864;24.990;2023-07-16T17:21:26;2.47;;;1.20;;
30062;SDS011;16889;67.864;24.990;2023-07-16T17:26:12;2.17;;;0.95;;
30062;SDS011;16889;67.864;24.990;2023-07-16T17:30:58;2.88;;;1.10;;
30062;SDS011;16889;67.864;24.990;2023-07-16T17:35:44;1.58;;;1.00;;
30062;SDS011;16889;67.864;24.990;2023-07-16T17:40:30;3.03;;;1.08;;
30062;SDS011;16889;67.864;24.990;2023-07-16T17:45:16;1.25;;;1.02;;
30062;SDS011;16889;67.864;24.990;2023-07-16T17:50:02;2.90;;;1.20;;
30062;SDS011;16889;67.864;24.990;2023-07-16T17:54:49;3.35;;;1.30;;
30062;SDS011;16889;67.864;24.990;2023-07-16T17:59:36;2.13;;;1.10;;
30062;SDS011;16889;67.864;24.990;2023-07-16T18:04:22;3.60;;;1.20;;
30062;SDS011;16889;67.864;24.990;2023-07-16T18:09:08;2.53;;;1.20;;
30062;SDS011;16889;67.864;24.990;2023-07-16T18:13:54;2.13;;;1.00;;
30062;SDS011;16889;67.864;24.990;2023-07-16T18:18:40;2.35;;;1.20;;
30062;SDS011;16889;67.864;24.990;2023-07-16T18:23:26;3.03;;;1.25;;
30062;SDS011;16889;67.864;24.990;2023-07-16T18:28:12;3.22;;;1.02;;
30062;SDS011;16889;67.864;24.990;2023-07-16T18:32:58;3.72;;;1.20;;
30062;SDS011;16889;67.864;24.990;2023-07-16T18:37:44;2.92;;;1.00;;
30062;SDS011;16889;67.864;24.990;2023-07-16T18:42:30;2.78;;;1.10;;
30062;SDS011;16889;67.864;24.990;2023-07-16T18:47:16;2.28;;;1.10;;
30062;SDS011;16889;67.864;24.990;2023-07-16T18:52:03;3.83;;;1.00;;
30062;SDS011;16889;67.864;24.990;2023-07-16T18:56:50;1.90;;;1.00;;
30062;SDS011;16889;67.864;24.990;2023-07-16T19:01:37;1.73;;;1.00;;
30062;SDS011;16889;67.864;24.990;2023-07-16T19:06:23;1.70;;;0.95;;
30062;SDS011;16889;67.864;24.990;2023-07-16T19:11:11;3.35;;;1.23;;
30062;SDS011;16889;67.864;24.990;2023-07-16T19:15:57;1.80;;;1.00;;
30062;SDS011;16889;67.864;24.990;2023-07-16T19:20:43;2.20;;;1.10;;
30062;SDS011;16889;67.864;24.990;2023-07-16T19:25:30;1.83;;;1.07;;
30062;SDS011;16889;67.864;24.990;2023-07-16T19:30:16;1.52;;;1.00;;
30062;SDS011;16889;67.864;24.990;2023-07-16T19:35:03;3.50;;;0.90;;
30062;SDS011;16889;67.864;24.990;2023-07-16T19:39:50;1.38;;;1.00;;
30062;SDS011;16889;67.864;24.990;2023-07-16T19:44:37;1.38;;;0.93;;
30062;SDS011;16889;67.864;24.990;2023-07-16T19:49:23;1.92;;;0.98;;
30062;SDS011;16889;67.864;24.990;2023-07-16T19:54:10;4.10;;;1.15;;
30062;SDS011;16889;67.864;24.990;2023-07-16T19:58:57;3.03;;;1.00;;
30062;SDS011;16889;67.864;24.990;2023-07-16T20:03:43;1.50;;;0.90;;
30062;SDS011;16889;67.864;24.990;2023-07-16T20:08:29;2.50;;;1.08;;
30062;SDS011;16889;67.864;24.990;2023-07-16T20:13:15;1.42;;;1.00;;
30062;SDS011;16889;67.864;24.990;2023-07-16T20:18:05;1.70;;;1.00;;
30062;SDS011;16889;67.864;24.990;2023-07-16T20:22:52;2.45;;;0.90;;
30062;SDS011;16889;67.864;24.990;2023-07-16T20:27:40;2.30;;;1.00;;
30062;SDS011;16889;67.864;24.990;2023-07-16T20:32:27;5.53;;;1.33;;
30062;SDS011;16889;67.864;24.990;2023-07-16T20:37:14;3.40;;;1.30;;
30062;SDS011;16889;67.864;24.990;2023-07-16T20:42:00;2.80;;;1.23;;
30062;SDS011;16889;67.864;24.990;2023-07-16T20:46:46;8.38;;;1.50;;
30062;SDS011;16889;67.864;24.990;2023-07-16T20:51:32;2.40;;;1.20;;
30062;SDS011;16889;67.864;24.990;2023-07-16T20:56:17;4.00;;;1.67;;
30062;SDS011;16889;67.864;24.990;2023-07-16T21:01:04;2.00;;;1.50;;
30062;SDS011;16889;67.864;24.990;2023-07-16T21:05:50;5.78;;;1.70;;
30062;SDS011;16889;67.864;24.990;2023-07-16T21:10:35;3.00;;;1.77;;
30062;SDS011;16889;67.864;24.990;2023-07-16T21:15:22;1.60;;;1.50;;
30062;SDS011;16889;67.864;24.990;2023-07-16T21:20:09;1.93;;;1.40;;
30062;SDS011;16889;67.864;24.990;2023-07-16T21:24:55;2.88;;;1.52;;
30062;SDS011;16889;67.864;24.990;2023-07-16T21:29:41;3.40;;;1.63;;
30062;SDS011;16889;67.864;24.990;2023-07-16T21:34:27;3.35;;;2.17;;
30062;SDS011;16889;67.864;24.990;2023-07-16T21:39:13;2.90;;;2.20;;
30062;SDS011;16889;67.864;24.990;2023-07-16T21:44:01;5.53;;;2.37;;
30062;SDS011;16889;67.864;24.990;2023-07-16T21:48:47;4.57;;;2.10;;
30062;SDS011;16889;67.864;24.990;2023-07-16T21:53:33;2.70;;;1.92;;
30062;SDS011;16889;67.864;24.990;2023-07-16T21:58:19;4.40;;;2.17;;
30062;SDS011;16889;67.864;24.990;2023-07-16T22:03:05;2.33;;;1.88;;
30062;SDS011;16889;67.864;24.990;2023-07-16T22:07:51;3.42;;;1.90;;
30062;SDS011;16889;67.864;24.990;2023-07-16T22:12:37;9.15;;;2.30;;
30062;SDS011;16889;67.864;24.990;2023-07-16T22:17:24;3.10;;;2.20;;
30062;SDS011;16889;67.864;24.990;2023-07-16T22:22:10;2.60;;;2.00;;
30062;SDS011;16889;67.864;24.990;2023-07-16T22:26:56;4.35;;;2.20;;
30062;SDS011;16889;67.864;24.990;2023-07-16T22:31:42;3.58;;;2.50;;
30062;SDS011;16889;67.864;24.990;2023-07-16T22:36:28;4.32;;;2.20;;
30062;SDS011;16889;67.864;24.990;2023-07-16T22:41:14;3.05;;;2.47;;
30062;SDS011;16889;67.864;24.990;2023-07-16T22:46:00;3.85;;;2.40;;
30062;SDS011;16889;67.864;24.990;2023-07-16T22:50:47;5.15;;;2.67;;
30062;SDS011;16889;67.864;24.990;2023-07-16T22:55:33;3.42;;;2.25;;
30062;SDS011;16889;67.864;24.990;2023-07-16T23:00:19;4.55;;;2.40;;
30062;SDS011;16889;67.864;24.990;2023-07-16T23:05:08;4.25;;;2.78;;
30062;SDS011;16889;67.864;24.990;2023-07-16T23:09:57;3.90;;;2.70;;
30062;SDS011;16889;67.864;24.990;2023-07-16T23:14:43;7.25;;;3.08;;
30062;SDS011;16889;67.864;24.990;2023-07-16T23:19:29;4.22;;;2.67;;
30062;SDS011;16889;67.864;24.990;2023-07-16T23:24:15;3.42;;;2.83;;
30062;SDS011;16889;67.864;24.990;2023-07-16T23:29:02;4.82;;;3.10;;
30062;SDS011;16889;67.864;24.990;2023-07-16T23:33:47;4.00;;;3.05;;
30062;SDS011;16889;67.864;24.990;2023-07-16T23:38:34;5.10;;;3.08;;
30062;SDS011;16889;67.864;24.990;2023-07-16T23:43:20;5.10;;;3.08;;
30062;SDS011;16889;67.864;24.990;2023-07-16T23:48:07;6.05;;;2.88;;
30062;SDS011;16889;67.864;24.990;2023-07-16T23:52:53;6.18;;;3.20;;
30062;SDS011;16889;67.864;24.990;2023-07-16T23:57:39;6.30;;;3.75;;
